Time;durP1;ratioP1;P1;durP2;ratioP2;P2;SDS_P1;SDS_P2;PMS_P1;PMS_P2;Temp;Humidity;BMP_temperature;BMP_pressure;BME280_temperature;BME280_humidity;BME280_pressure;Samples;Min_cycle;Max_cycle;Signal;HPM_P1;HPM_P2
2023/10/23 00:01:20;;;;;;;17.63;16.63;;;;;;;;;;5061403;28;20033;-67
2023/10/23 00:03:46;;;;;;;17.48;16.48;;;;;;;;;;5061918;28;20028;-69
2023/10/23 00:06:11;;;;;;;17.55;16.55;;;;;;;;;;5061014;28;20041;-69
2023/10/23 00:08:36;;;;;;;20.27;19.17;;;;;;;;;;5061864;28;20032;-66
2023/10/23 00:11:02;;;;;;;19.27;18.23;;;;;;;;;;5061453;28;20038;-66
2023/10/23 00:13:27;;;;;;;18.60;17.50;;;;;;;;;;5064977;28;20044;-66
2023/10/23 00:15:52;;;;;;;19.05;18.05;;;;;;;;;;5062374;28;20382;-69
2023/10/23 00:18:18;;;;;;;18.98;17.88;;;;;;;;;;5059007;28;20938;-69
2023/10/23 00:20:43;;;;;;;18.13;17.13;;;;;;;;;;5062839;28;20036;-69
2023/10/23 00:23:09;;;;;;;17.88;16.88;;;;;;;;;;5059288;28;20162;-69
2023/10/23 00:25:34;;;;;;;19.23;18.02;;;;;;;;;;5061751;28;20127;-69
2023/10/23 00:28:00;;;;;;;17.92;16.92;;;;;;;;;;5059861;28;20299;-69
2023/10/23 00:30:26;;;;;;;17.50;16.40;;;;;;;;;;5058215;28;20096;-69
2023/10/23 00:32:51;;;;;;;18.55;17.55;;;;;;;;;;5059909;28;20104;-67
2023/10/23 00:35:16;;;;;;;17.75;16.75;;;;;;;;;;5060905;28;20066;-66
2023/10/23 00:37:42;;;;;;;19.40;18.30;;;;;;;;;;5058171;28;20044;-66
2023/10/23 00:40:08;;;;;;;19.08;17.73;;;;;;;;;;5061076;28;20354;-66
2023/10/23 00:42:33;;;;;;;19.35;18.25;;;;;;;;;;5060362;28;20043;-68
2023/10/23 00:44:59;;;;;;;17.70;16.70;;;;;;;;;;5060614;28;20029;-69
2023/10/23 00:47:25;;;;;;;16.70;15.70;;;;;;;;;;5061323;28;20040;-69
2023/10/23 00:49:51;;;;;;;17.45;16.48;;;;;;;;;;5058637;28;20020;-66
2023/10/23 00:52:16;;;;;;;17.40;16.40;;;;;;;;;;5058234;28;20044;-69
2023/10/23 00:54:42;;;;;;;17.90;16.90;;;;;;;;;;5061031;28;20051;-66
2023/10/23 00:57:08;;;;;;;18.33;17.30;;;;;;;;;;5061248;28;20040;-69
2023/10/23 00:59:34;;;;;;;18.02;17.02;;;;;;;;;;5061176;28;20033;-68
2023/10/23 01:02:00;;;;;;;19.23;18.08;;;;;;;;;;5057691;28;20614;-69
2023/10/23 01:04:26;;;;;;;19.83;18.73;;;;;;;;;;5057410;28;20044;-68
2023/10/23 01:06:51;;;;;;;21.55;20.25;;;;;;;;;;5059320;28;20538;-69
2023/10/23 01:09:17;;;;;;;20.38;19.27;;;;;;;;;;5060119;28;20036;-66
2023/10/23 01:11:43;;;;;;;20.42;19.23;;;;;;;;;;5059585;28;20059;-66
2023/10/23 01:14:08;;;;;;;19.80;18.70;;;;;;;;;;5058920;28;20037;-66
2023/10/23 01:16:33;;;;;;;18.08;17.08;;;;;;;;;;5060303;28;20063;-65
2023/10/23 01:18:59;;;;;;;18.10;17.10;;;;;;;;;;5058409;28;20041;-70
2023/10/23 01:21:24;;;;;;;18.20;17.20;;;;;;;;;;5061204;28;20046;-70
2023/10/23 01:23:51;;;;;;;18.75;17.65;;;;;;;;;;5056819;28;20462;-69
2023/10/23 01:26:17;;;;;;;18.08;17.08;;;;;;;;;;5057939;28;20115;-69
2023/10/23 01:28:43;;;;;;;19.98;18.88;;;;;;;;;;5043605;28;20115;-69
2023/10/23 01:31:09;;;;;;;19.35;18.25;;;;;;;;;;5056802;28;20525;-69
2023/10/23 01:33:34;;;;;;;17.83;16.83;;;;;;;;;;5061512;28;20033;-70
2023/10/23 01:35:59;;;;;;;18.77;17.77;;;;;;;;;;5060813;28;20116;-69
2023/10/23 01:38:25;;;;;;;18.23;17.23;;;;;;;;;;5059348;28;20039;-69
2023/10/23 01:40:50;;;;;;;18.25;17.25;;;;;;;;;;5062152;28;20036;-66
2023/10/23 01:43:16;;;;;;;18.73;17.73;;;;;;;;;;5058571;28;20032;-66
2023/10/23 01:45:41;;;;;;;17.88;16.83;;;;;;;;;;5061218;28;20451;-66
2023/10/23 01:48:06;;;;;;;17.52;16.52;;;;;;;;;;5060054;28;20233;-67
2023/10/23 01:50:32;;;;;;;17.13;16.23;;;;;;;;;;5056501;28;20025;-66
2023/10/23 01:52:57;;;;;;;18.70;17.70;;;;;;;;;;5058902;28;20113;-67
2023/10/23 01:55:23;;;;;;;17.45;16.45;;;;;;;;;;5056764;28;20032;-65
2023/10/23 01:57:48;;;;;;;17.55;16.55;;;;;;;;;;5059689;28;20036;-65
2023/10/23 02:00:14;;;;;;;17.52;16.52;;;;;;;;;;5059540;28;20445;-70
2023/10/23 02:02:39;;;;;;;17.63;16.63;;;;;;;;;;5059067;28;20036;-68
2023/10/23 02:05:05;;;;;;;17.67;16.67;;;;;;;;;;5058770;28;20036;-68
2023/10/23 02:07:30;;;;;;;17.77;16.75;;;;;;;;;;5058669;28;20036;-68
2023/10/23 02:09:56;;;;;;;18.67;17.58;;;;;;;;;;5058740;28;20089;-68
2023/10/23 02:12:23;;;;;;;17.80;16.77;;;;;;;;;;5061312;28;20037;-68
2023/10/23 02:14:50;;;;;;;17.50;16.50;;;;;;;;;;5058353;28;20548;-67
2023/10/23 02:17:17;;;;;;;19.63;18.52;;;;;;;;;;5059226;28;20055;-68
2023/10/23 02:19:42;;;;;;;17.35;16.35;;;;;;;;;;5058772;28;20071;-67
2023/10/23 02:22:08;;;;;;;17.77;16.77;;;;;;;;;;5055574;28;20025;-66
2023/10/23 02:24:33;;;;;;;18.45;17.45;;;;;;;;;;5060393;28;20476;-65
2023/10/23 02:26:58;;;;;;;18.05;17.05;;;;;;;;;;5061679;28;20193;-66
2023/10/23 02:29:24;;;;;;;18.52;17.52;;;;;;;;;;5059822;28;20041;-65
2023/10/23 02:31:49;;;;;;;18.33;17.23;;;;;;;;;;5060938;28;20060;-67
2023/10/23 02:34:15;;;;;;;20.30;19.20;;;;;;;;;;5058780;28;20124;-68
2023/10/23 02:36:40;;;;;;;17.65;16.65;;;;;;;;;;5059466;28;20033;-68
2023/10/23 02:39:06;;;;;;;17.05;16.05;;;;;;;;;;5058689;28;20447;-68
2023/10/23 02:41:31;;;;;;;16.73;15.82;;;;;;;;;;5058704;28;20384;-68
2023/10/23 02:43:57;;;;;;;17.33;16.35;;;;;;;;;;5062707;28;20040;-68
2023/10/23 02:46:22;;;;;;;17.02;16.10;;;;;;;;;;5058692;28;20037;-65
2023/10/23 02:48:47;;;;;;;17.42;16.42;;;;;;;;;;5059045;28;20025;-69
2023/10/23 02:51:13;;;;;;;17.70;16.70;;;;;;;;;;5063008;28;20024;-68
2023/10/23 02:53:38;;;;;;;18.13;17.02;;;;;;;;;;5059209;28;20950;-68
2023/10/23 02:56:09;;;;;;;17.35;16.35;;;;;;;;;;5057343;28;21103;-68
2023/10/23 02:58:35;;;;;;;;;;;;;;;;;;5057599;28;20044;-66
2023/10/23 03:01:01;;;;;;;16.48;15.57;;;;;;;;;;5061787;28;19981;-65
2023/10/23 03:03:26;;;;;;;16.50;15.60;;;;;;;;;;5059002;28;20033;-65
2023/10/23 03:05:52;;;;;;;17.73;16.73;;;;;;;;;;5061169;28;20027;-66
2023/10/23 03:08:17;;;;;;;17.73;16.73;;;;;;;;;;5064526;28;20041;-65
2023/10/23 03:10:43;;;;;;;17.13;16.13;;;;;;;;;;5064808;28;20093;-65
2023/10/23 03:13:08;;;;;;;17.60;16.58;;;;;;;;;;5060843;28;20032;-65
2023/10/23 03:15:36;;;;;;;16.30;15.40;;;;;;;;;;5064176;28;20032;-67
2023/10/23 03:18:03;;;;;;;16.80;15.90;;;;;;;;;;5064759;28;20051;-65
2023/10/23 03:20:32;;;;;;;16.67;15.77;;;;;;;;;;5062365;28;20060;-65
2023/10/23 03:22:58;;;;;;;18.60;17.55;;;;;;;;;;5068719;28;20120;-65
2023/10/23 03:25:24;;;;;;;17.17;16.17;;;;;;;;;;5048596;28;20524;-65
2023/10/23 03:27:50;;;;;;;18.60;17.58;;;;;;;;;;5072049;28;20532;-66
2023/10/23 03:30:16;;;;;;;16.70;15.70;;;;;;;;;;5062205;28;20053;-66
2023/10/23 03:32:41;;;;;;;17.38;16.40;;;;;;;;;;5061187;28;20038;-68
2023/10/23 03:35:07;;;;;;;18.80;17.70;;;;;;;;;;5064329;28;20048;-68
2023/10/23 03:37:32;;;;;;;19.77;18.58;;;;;;;;;;5063715;28;20029;-68
2023/10/23 03:39:58;;;;;;;16.20;15.30;;;;;;;;;;5067629;28;20413;-68
2023/10/23 03:42:23;;;;;;;16.70;15.80;;;;;;;;;;5065067;28;20029;-68
2023/10/23 03:44:49;;;;;;;20.75;17.70;;;;;;;;;;5064901;28;20123;-69
2023/10/23 03:47:14;;;;;;;16.92;16.00;;;;;;;;;;5067881;28;20117;-66
2023/10/23 03:49:39;;;;;;;18.83;17.65;;;;;;;;;;5066208;28;20032;-66
2023/10/23 03:52:05;;;;;;;17.75;16.75;;;;;;;;;;5064259;28;20032;-66
2023/10/23 03:54:30;;;;;;;15.95;15.05;;;;;;;;;;5064546;28;20047;-66
2023/10/23 03:56:56;;;;;;;16.83;15.90;;;;;;;;;;5061718;28;20028;-68
2023/10/23 03:59:21;;;;;;;16.73;15.82;;;;;;;;;;5061065;28;20196;-65
2023/10/23 04:01:47;;;;;;;18.42;17.42;;;;;;;;;;5065419;28;20075;-65
2023/10/23 04:04:13;;;;;;;18.13;17.02;;;;;;;;;;5062551;28;20112;-65
2023/10/23 04:06:39;;;;;;;17.67;16.67;;;;;;;;;;5061479;28;20101;-65
2023/10/23 04:09:05;;;;;;;18.27;17.13;;;;;;;;;;5063315;28;20033;-65
2023/10/23 04:11:30;;;;;;;15.98;15.07;;;;;;;;;;5060712;28;20037;-67
2023/10/23 04:13:56;;;;;;;16.73;15.80;;;;;;;;;;5064790;28;20040;-68
2023/10/23 04:16:22;;;;;;;16.73;15.73;;;;;;;;;;5061503;28;20733;-68
2023/10/23 04:18:47;;;;;;;18.23;17.23;;;;;;;;;;5061981;28;20029;-68
2023/10/23 04:21:12;;;;;;;17.30;16.05;;;;;;;;;;5063946;28;20036;-68
2023/10/23 04:23:40;;;;;;;18.33;17.23;;;;;;;;;;5062359;28;20129;-68
2023/10/23 04:26:08;;;;;;;17.85;16.85;;;;;;;;;;5063256;28;20032;-65
2023/10/23 04:28:36;;;;;;;18.48;17.48;;;;;;;;;;5060537;28;20025;-65
2023/10/23 04:31:03;;;;;;;17.55;16.55;;;;;;;;;;5060412;28;20032;-65
2023/10/23 04:33:29;;;;;;;17.33;16.33;;;;;;;;;;5059628;28;20120;-65
2023/10/23 04:35:56;;;;;;;17.42;16.45;;;;;;;;;;5060008;28;20115;-66
2023/10/23 04:38:22;;;;;;;16.42;15.52;;;;;;;;;;5058624;28;20399;-65
2023/10/23 04:40:50;;;;;;;18.35;17.08;;;;;;;;;;5062709;28;20214;-65
2023/10/23 04:43:15;;;;;;;17.30;16.30;;;;;;;;;;5055559;28;20036;-65
2023/10/23 04:45:40;;;;;;;18.08;17.08;;;;;;;;;;5063907;28;20442;-67
2023/10/23 04:48:06;;;;;;;19.25;18.17;;;;;;;;;;5059620;28;20035;-68
2023/10/23 04:50:33;;;;;;;16.95;16.02;;;;;;;;;;5066418;28;20115;-67
2023/10/23 04:53:01;;;;;;;18.77;17.67;;;;;;;;;;5063129;28;20098;-65
2023/10/23 04:55:32;;;;;;;17.85;16.75;;;;;;;;;;5065066;28;20063;-65
2023/10/23 04:57:58;;;;;;;17.92;16.92;;;;;;;;;;5059291;28;20042;-65
2023/10/23 05:00:23;;;;;;;17.92;16.63;;;;;;;;;;5061989;28;20036;-65
2023/10/23 05:02:49;;;;;;;18.15;17.15;;;;;;;;;;5067518;28;20032;-67
2023/10/23 05:05:14;;;;;;;17.35;16.35;;;;;;;;;;5060983;28;20028;-68
2023/10/23 05:07:39;;;;;;;16.80;15.90;;;;;;;;;;5057027;28;20040;-68
2023/10/23 05:10:09;;;;;;;19.48;18.38;;;;;;;;;;5065910;28;20052;-65
2023/10/23 05:12:42;;;;;;;17.45;16.48;;;;;;;;;;5059296;28;20064;-65
2023/10/23 05:15:08;;;;;;;17.05;16.05;;;;;;;;;;5061833;28;20106;-68
2023/10/23 05:17:33;;;;;;;19.23;18.13;;;;;;;;;;5058349;28;20750;-66
2023/10/23 05:19:59;;;;;;;19.30;18.20;;;;;;;;;;5061573;28;20040;-69
2023/10/23 05:22:24;;;;;;;18.08;16.98;;;;;;;;;;5058391;28;20139;-64
2023/10/23 05:24:49;;;;;;;18.60;17.60;;;;;;;;;;5060873;28;20036;-65
2023/10/23 05:27:17;;;;;;;19.67;18.13;;;;;;;;;;5060134;28;20068;-65
2023/10/23 05:29:42;;;;;;;19.70;18.50;;;;;;;;;;5062800;28;20075;-65
2023/10/23 05:32:08;;;;;;;19.83;18.73;;;;;;;;;;5058319;28;20407;-65
2023/10/23 05:34:34;;;;;;;18.95;17.88;;;;;;;;;;5059892;28;20043;-68
2023/10/23 05:36:59;;;;;;;19.48;18.30;;;;;;;;;;5060172;28;20043;-67
2023/10/23 05:39:25;;;;;;;18.98;17.88;;;;;;;;;;5064535;28;20039;-67
2023/10/23 05:41:51;;;;;;;20.80;19.55;;;;;;;;;;5060196;28;22039;-67
2023/10/23 05:44:16;;;;;;;21.70;20.42;;;;;;;;;;5063403;28;20044;-67
2023/10/23 05:46:41;;;;;;;19.83;18.58;;;;;;;;;;5061915;28;20036;-67
2023/10/23 05:49:07;;;;;;;18.60;17.60;;;;;;;;;;5058640;28;20039;-68
2023/10/23 05:51:32;;;;;;;18.85;17.67;;;;;;;;;;5061623;28;20041;-67
2023/10/23 05:53:57;;;;;;;18.52;17.33;;;;;;;;;;5059613;28;20046;-65
2023/10/23 05:56:23;;;;;;;17.55;16.55;;;;;;;;;;5060637;28;20039;-65
2023/10/23 05:58:50;;;;;;;18.05;17.05;;;;;;;;;;5057564;28;20036;-67
2023/10/23 06:01:15;;;;;;;18.15;17.15;;;;;;;;;;5058129;28;20041;-64
2023/10/23 06:03:41;;;;;;;18.40;17.30;;;;;;;;;;5056278;28;20043;-64
2023/10/23 06:06:07;;;;;;;18.73;17.45;;;;;;;;;;5060762;28;20032;-68
2023/10/23 06:08:33;;;;;;;17.50;16.50;;;;;;;;;;5058493;28;20477;-65
2023/10/23 06:10:59;;;;;;;17.40;16.40;;;;;;;;;;5059927;28;21216;-65
2023/10/23 06:13:25;;;;;;;19.45;18.27;;;;;;;;;;5060471;28;20055;-65
2023/10/23 06:15:51;;;;;;;17.45;16.45;;;;;;;;;;5060803;28;20029;-64
2023/10/23 06:18:16;;;;;;;18.95;17.85;;;;;;;;;;5061190;28;20139;-68
2023/10/23 06:20:41;;;;;;;24.00;17.50;;;;;;;;;;5061934;28;20040;-66
2023/10/23 06:23:07;;;;;;;19.60;18.50;;;;;;;;;;5059431;28;20043;-68
2023/10/23 06:25:32;;;;;;;18.75;17.65;;;;;;;;;;5060254;28;20442;-68
2023/10/23 06:27:59;;;;;;;18.77;17.60;;;;;;;;;;5046063;28;20038;-66
2023/10/23 06:30:24;;;;;;;18.60;17.50;;;;;;;;;;5057696;28;20098;-67
2023/10/23 06:32:50;;;;;;;17.88;16.77;;;;;;;;;;5063928;28;20059;-68
2023/10/23 06:35:16;;;;;;;19.60;18.50;;;;;;;;;;5060209;28;20593;-65
2023/10/23 06:37:41;;;;;;;18.23;17.23;;;;;;;;;;5059625;28;20037;-65
2023/10/23 06:40:07;;;;;;;18.58;17.33;;;;;;;;;;5063472;28;20597;-69
2023/10/23 06:42:34;;;;;;;19.63;18.40;;;;;;;;;;5063047;28;20115;-69
2023/10/23 06:44:59;;;;;;;20.23;18.88;;;;;;;;;;5063610;28;20172;-67
2023/10/23 06:47:25;;;;;;;21.92;19.92;;;;;;;;;;5063698;28;20182;-68
2023/10/23 06:49:51;;;;;;;23.20;21.70;;;;;;;;;;5066087;28;20033;-65
2023/10/23 06:52:17;;;;;;;20.58;19.25;;;;;;;;;;5062818;28;20127;-65
2023/10/23 06:54:42;;;;;;;20.08;18.65;;;;;;;;;;5060472;28;20033;-65
2023/10/23 06:57:08;;;;;;;20.23;19.00;;;;;;;;;;5062741;28;20059;-67
2023/10/23 06:59:34;;;;;;;20.10;19.00;;;;;;;;;;5060918;28;20158;-67
2023/10/23 07:02:00;;;;;;;23.30;20.88;;;;;;;;;;5062935;28;20425;-65
2023/10/23 07:04:26;;;;;;;21.40;20.20;;;;;;;;;;5065193;28;20029;-69
2023/10/23 07:06:52;;;;;;;20.27;19.08;;;;;;;;;;5063852;28;20051;-69
2023/10/23 07:09:17;;;;;;;20.52;19.42;;;;;;;;;;5058092;28;20889;-69
2023/10/23 07:11:43;;;;;;;20.55;19.38;;;;;;;;;;5062804;28;20099;-67
2023/10/23 07:14:09;;;;;;;21.13;19.95;;;;;;;;;;5068325;28;20043;-67
2023/10/23 07:16:34;;;;;;;19.58;18.48;;;;;;;;;;5064771;28;20036;-66
2023/10/23 07:19:03;;;;;;;19.50;18.40;;;;;;;;;;5066799;28;20441;-69
2023/10/23 07:21:28;;;;;;;20.88;19.70;;;;;;;;;;5061915;28;20067;-69
2023/10/23 07:23:54;;;;;;;21.13;20.02;;;;;;;;;;5062238;28;20033;-69
2023/10/23 07:26:19;;;;;;;22.85;21.55;;;;;;;;;;5065424;28;20095;-67
2023/10/23 07:28:45;;;;;;;22.85;20.83;;;;;;;;;;5062859;28;20017;-67
2023/10/23 07:31:11;;;;;;;20.52;19.42;;;;;;;;;;5065533;28;20063;-69
2023/10/23 07:33:36;;;;;;;22.55;21.00;;;;;;;;;;5062403;28;20126;-66
2023/10/23 07:36:03;;;;;;;22.40;21.15;;;;;;;;;;5064663;28;20099;-68
2023/10/23 07:38:29;;;;;;;21.10;20.00;;;;;;;;;;5062518;28;20028;-66
2023/10/23 07:40:55;;;;;;;22.92;21.63;;;;;;;;;;5064502;28;20025;-66
2023/10/23 07:43:20;;;;;;;20.85;19.55;;;;;;;;;;5063949;28;20048;-66
2023/10/23 07:45:45;;;;;;;18.85;17.85;;;;;;;;;;5067534;28;20043;-68
2023/10/23 07:48:11;;;;;;;21.20;19.92;;;;;;;;;;5065027;28;20032;-68
2023/10/23 07:50:36;;;;;;;20.75;19.63;;;;;;;;;;5064750;28;20046;-68
2023/10/23 07:53:02;;;;;;;21.95;20.75;;;;;;;;;;5063350;28;20029;-66
2023/10/23 07:55:27;;;;;;;22.10;20.90;;;;;;;;;;5065716;28;20055;-68
2023/10/23 07:57:53;;;;;;;21.77;20.45;;;;;;;;;;5032620;28;20025;-68
2023/10/23 08:00:19;;;;;;;20.00;18.90;;;;;;;;;;5062264;28;20046;-68
2023/10/23 08:02:44;;;;;;;20.77;19.65;;;;;;;;;;5064339;28;20587;-66
2023/10/23 08:05:09;;;;;;;20.92;19.73;;;;;;;;;;5060913;28;20169;-66
2023/10/23 08:07:35;;;;;;;21.73;20.42;;;;;;;;;;5061157;28;20561;-66
2023/10/23 08:10:00;;;;;;;20.77;19.58;;;;;;;;;;5063160;28;20369;-68
2023/10/23 08:12:26;;;;;;;21.73;20.42;;;;;;;;;;5065060;28;20032;-69
2023/10/23 08:14:51;;;;;;;21.27;20.08;;;;;;;;;;5064957;28;20039;-66
2023/10/23 08:17:16;;;;;;;19.95;18.85;;;;;;;;;;5060944;28;20040;-66
2023/10/23 08:19:42;;;;;;;20.95;19.83;;;;;;;;;;5060738;28;20492;-66
2023/10/23 08:22:07;;;;;;;22.35;20.77;;;;;;;;;;5061697;28;20024;-68
2023/10/23 08:24:32;;;;;;;21.42;20.23;;;;;;;;;;5064835;28;20054;-68
2023/10/23 08:26:58;;;;;;;23.60;22.30;;;;;;;;;;5066005;28;20036;-68
2023/10/23 08:29:23;;;;;;;21.35;19.50;;;;;;;;;;5063906;28;20055;-68
2023/10/23 08:31:49;;;;;;;20.85;19.75;;;;;;;;;;5061965;28;20044;-66
2023/10/23 08:34:14;;;;;;;21.90;20.60;;;;;;;;;;5068676;28;20032;-68
2023/10/23 08:36:39;;;;;;;20.95;19.80;;;;;;;;;;5065333;28;20036;-68
2023/10/23 08:39:05;;;;;;;22.17;20.98;;;;;;;;;;5062669;28;20040;-68
2023/10/23 08:41:31;;;;;;;19.88;18.73;;;;;;;;;;5065214;28;20488;-68
2023/10/23 08:43:57;;;;;;;18.40;17.40;;;;;;;;;;5062095;28;20028;-68
2023/10/23 08:46:26;;;;;;;19.67;18.58;;;;;;;;;;5062383;28;20040;-69
2023/10/23 08:48:52;;;;;;;19.05;17.95;;;;;;;;;;5063837;28;20522;-68
2023/10/23 08:51:18;;;;;;;19.02;17.98;;;;;;;;;;5061966;28;20089;-69
2023/10/23 08:53:49;;;;;;;19.15;18.05;;;;;;;;;;5062761;28;20381;-68
2023/10/23 08:56:16;;;;;;;18.10;16.88;;;;;;;;;;5068366;28;20029;-69
2023/10/23 08:58:48;;;;;;;18.05;16.95;;;;;;;;;;5060804;28;20037;-68
2023/10/23 09:01:14;;;;;;;17.45;16.45;;;;;;;;;;5062215;28;20040;-69
2023/10/23 09:03:40;;;;;;;16.88;15.77;;;;;;;;;;5062041;28;20366;-67
2023/10/23 09:06:09;;;;;;;17.17;16.17;;;;;;;;;;5061652;28;20021;-66
2023/10/23 09:08:37;;;;;;;18.13;17.10;;;;;;;;;;5058801;28;20029;-66
2023/10/23 09:11:04;;;;;;;17.85;16.83;;;;;;;;;;5063983;28;20054;-69
2023/10/23 09:13:38;;;;;;;21.02;19.23;;;;;;;;;;5063251;28;20117;-66
2023/10/23 09:16:05;;;;;;;19.23;18.13;;;;;;;;;;5061044;28;20577;-65
2023/10/23 09:18:31;;;;;;;20.70;19.60;;;;;;;;;;5066460;28;20048;-66
2023/10/23 09:20:57;;;;;;;19.73;18.63;;;;;;;;;;5060272;28;20084;-67
2023/10/23 09:23:22;;;;;;;19.58;18.48;;;;;;;;;;5061750;28;20075;-68
2023/10/23 09:25:48;;;;;;;19.45;18.35;;;;;;;;;;5060582;28;20040;-68
2023/10/23 09:28:14;;;;;;;18.90;17.70;;;;;;;;;;5063123;28;20033;-68
2023/10/23 09:30:39;;;;;;;18.65;17.45;;;;;;;;;;5060522;28;20676;-66
2023/10/23 09:33:06;;;;;;;20.67;18.88;;;;;;;;;;5061517;28;20093;-67
2023/10/23 09:35:32;;;;;;;19.58;18.48;;;;;;;;;;5062718;28;20036;-69
2023/10/23 09:37:58;;;;;;;18.67;17.67;;;;;;;;;;5059415;28;20048;-69
2023/10/23 09:40:24;;;;;;;19.55;18.45;;;;;;;;;;5061349;28;20032;-67
2023/10/23 09:42:51;;;;;;;20.35;19.10;;;;;;;;;;5062414;28;20064;-66
2023/10/23 09:45:16;;;;;;;19.77;18.67;;;;;;;;;;5060532;28;20049;-66
2023/10/23 09:47:42;;;;;;;21.80;19.38;;;;;;;;;;5063397;28;20115;-67
2023/10/23 09:50:08;;;;;;;20.27;19.08;;;;;;;;;;5061371;28;20032;-69
2023/10/23 09:52:35;;;;;;;19.60;18.50;;;;;;;;;;5059915;28;20493;-69
2023/10/23 09:55:05;;;;;;;20.17;19.08;;;;;;;;;;5061415;28;20067;-67
2023/10/23 09:57:38;;;;;;;20.10;18.48;;;;;;;;;;5060533;28;20040;-69
2023/10/23 10:00:13;;;;;;;20.40;19.20;;;;;;;;;;5075103;28;20033;-67
2023/10/23 10:02:45;;;;;;;19.90;18.60;;;;;;;;;;5065744;28;20055;-69
2023/10/23 10:05:20;;;;;;;21.90;20.60;;;;;;;;;;5061231;28;20047;-69
2023/10/23 10:08:07;;;;;;;22.02;20.65;;;;;;;;;;5061650;28;20040;-67
2023/10/23 10:10:35;;;;;;;20.90;19.70;;;;;;;;;;5060749;28;20039;-67
2023/10/23 10:13:02;;;;;;;21.85;20.45;;;;;;;;;;5057471;28;20056;-68
2023/10/23 10:15:29;;;;;;;20.88;19.67;;;;;;;;;;5061957;28;20092;-69
2023/10/23 10:17:55;;;;;;;22.23;20.92;;;;;;;;;;5058793;28;20028;-69
2023/10/23 10:20:24;;;;;;;20.77;19.67;;;;;;;;;;5061716;28;20033;-67
2023/10/23 10:22:58;;;;;;;24.00;22.70;;;;;;;;;;5059152;28;20033;-66
2023/10/23 10:25:26;;;;;;;26.55;25.08;;;;;;;;;;5062126;28;20041;-69
2023/10/23 10:27:58;;;;;;;27.67;26.13;;;;;;;;;;5061763;28;20421;-68
2023/10/23 10:30:45;;;;;;;23.67;22.38;;;;;;;;;;5062023;28;20450;-69
2023/10/23 10:33:21;;;;;;;25.42;24.10;;;;;;;;;;5060182;28;20037;-69
2023/10/23 10:35:57;;;;;;;26.88;25.38;;;;;;;;;;5058938;28;20071;-69
2023/10/23 10:38:23;;;;;;;29.30;27.60;;;;;;;;;;5061229;28;20044;-69
2023/10/23 10:41:00;;;;;;;35.15;33.25;;;;;;;;;;5055979;28;20086;-66
2023/10/23 10:43:39;;;;;;;32.40;30.70;;;;;;;;;;5063115;28;20032;-69
2023/10/23 10:46:15;;;;;;;32.70;30.92;;;;;;;;;;5058727;28;20032;-66
2023/10/23 10:48:48;;;;;;;29.63;28.08;;;;;;;;;;5064223;28;20017;-69
2023/10/23 10:51:19;;;;;;;29.48;27.88;;;;;;;;;;5056907;28;20429;-69
2023/10/23 10:53:54;;;;;;;35.50;33.50;;;;;;;;;;5063551;28;20060;-69
2023/10/23 10:56:19;;;;;;;40.22;38.17;;;;;;;;;;5057495;28;20029;-69
2023/10/23 10:58:45;;;;;;;41.40;39.28;;;;;;;;;;5059868;28;20379;-69
2023/10/23 11:01:11;;;;;;;39.67;37.63;;;;;;;;;;5056349;28;20315;-69
2023/10/23 11:03:36;;;;;;;41.75;39.63;;;;;;;;;;5060698;28;20033;-69
2023/10/23 11:06:05;;;;;;;49.42;46.92;;;;;;;;;;5059290;28;20456;-69
2023/10/23 11:08:31;;;;;;;45.70;43.30;;;;;;;;;;5059051;28;20033;-68
2023/10/23 11:10:57;;;;;;;48.70;46.20;;;;;;;;;;5058513;28;20505;-69
2023/10/23 11:13:23;;;;;;;39.80;37.75;;;;;;;;;;5054936;28;20051;-69
2023/10/23 11:15:54;;;;;;;47.60;45.17;;;;;;;;;;5059347;28;20038;-66
2023/10/23 11:18:19;;;;;;;52.60;49.90;;;;;;;;;;5058613;28;20029;-69
2023/10/23 11:20:46;;;;;;;54.80;51.90;;;;;;;;;;5060075;28;20093;-63
2023/10/23 11:23:17;;;;;;;49.55;47.03;;;;;;;;;;5057740;28;20033;-68
2023/10/23 11:25:47;;;;;;;52.55;49.85;;;;;;;;;;5063001;28;20052;-69
2023/10/23 11:28:13;;;;;;;50.22;47.67;;;;;;;;;;5060189;28;20021;-69
2023/10/23 11:30:46;;;;;;;56.42;53.35;;;;;;;;;;5063351;28;20560;-67
2023/10/23 11:33:13;;;;;;;53.17;50.47;;;;;;;;;;5061829;28;20063;-66
2023/10/23 11:35:40;;;;;;;42.45;40.15;;;;;;;;;;5064476;28;21136;-66
2023/10/23 11:38:05;;;;;;;37.20;35.30;;;;;;;;;;5063101;28;20041;-64
2023/10/23 11:40:33;;;;;;;33.22;31.52;;;;;;;;;;5066106;28;20094;-66
2023/10/23 11:42:58;;;;;;;36.85;34.95;;;;;;;;;;5062655;28;20123;-67
2023/10/23 11:45:24;;;;;;;42.15;39.97;;;;;;;;;;5066301;28;20694;-69
2023/10/23 11:47:51;;;;;;;37.53;35.42;;;;;;;;;;5062241;28;20040;-66
2023/10/23 11:50:18;;;;;;;34.47;32.67;;;;;;;;;;5064633;28;20052;-68
2023/10/23 11:52:45;;;;;;;29.75;28.13;;;;;;;;;;5046338;28;20552;-68
2023/10/23 11:55:16;;;;;;;28.45;26.95;;;;;;;;;;5062883;28;20040;-64
2023/10/23 11:57:45;;;;;;;28.80;27.30;;;;;;;;;;5063236;28;20111;-66
2023/10/23 12:00:12;;;;;;;22.05;20.85;;;;;;;;;;5062488;28;20131;-65
2023/10/23 12:02:39;;;;;;;22.65;21.45;;;;;;;;;;5062153;28;20033;-68
2023/10/23 12:05:06;;;;;;;23.52;21.95;;;;;;;;;;5064895;28;20028;-67
2023/10/23 12:07:32;;;;;;;21.75;20.55;;;;;;;;;;5063504;28;20037;-64
2023/10/23 12:09:57;;;;;;;20.63;19.42;;;;;;;;;;5058242;28;20074;-65
2023/10/23 12:12:22;;;;;;;21.85;20.65;;;;;;;;;;5064594;28;20020;-65
2023/10/23 12:14:48;;;;;;;20.00;18.90;;;;;;;;;;5063970;28;20036;-65
2023/10/23 12:17:13;;;;;;;24.20;22.85;;;;;;;;;;5059783;28;20043;-67
2023/10/23 12:19:38;;;;;;;23.48;22.25;;;;;;;;;;5061711;28;20339;-65
2023/10/23 12:22:04;;;;;;;23.77;22.50;;;;;;;;;;5063783;28;20041;-65
2023/10/23 12:24:30;;;;;;;24.20;22.83;;;;;;;;;;5058857;28;20067;-65
2023/10/23 12:26:55;;;;;;;22.17;20.98;;;;;;;;;;5062903;28;20048;-65
2023/10/23 12:29:22;;;;;;;23.20;21.90;;;;;;;;;;5057925;28;20094;-65
2023/10/23 12:31:47;;;;;;;22.75;21.52;;;;;;;;;;5059747;28;20120;-65
2023/10/23 12:34:12;;;;;;;26.45;25.05;;;;;;;;;;5061680;28;20120;-67
2023/10/23 12:36:38;;;;;;;24.48;23.08;;;;;;;;;;5060108;28;20029;-67
2023/10/23 12:39:06;;;;;;;24.55;22.35;;;;;;;;;;5062641;28;20036;-67
2023/10/23 12:41:32;;;;;;;21.52;20.20;;;;;;;;;;5061687;28;20108;-67
2023/10/23 12:43:57;;;;;;;23.23;22.00;;;;;;;;;;5059108;28;20094;-67
2023/10/23 12:46:22;;;;;;;24.98;23.60;;;;;;;;;;5058882;28;20033;-65
2023/10/23 12:48:48;;;;;;;27.45;25.95;;;;;;;;;;5059458;28;20031;-67
2023/10/23 12:51:13;;;;;;;29.17;27.67;;;;;;;;;;5062275;28;20518;-67
2023/10/23 12:53:38;;;;;;;25.70;24.30;;;;;;;;;;5058933;28;20094;-65
2023/10/23 12:56:04;;;;;;;26.48;25.02;;;;;;;;;;5061339;28;20031;-67
2023/10/23 12:58:29;;;;;;;24.50;23.20;;;;;;;;;;5060261;28;20098;-65
2023/10/23 13:00:55;;;;;;;21.52;20.33;;;;;;;;;;5058249;28;20418;-67
2023/10/23 13:03:20;;;;;;;21.63;20.45;;;;;;;;;;5060182;28;20067;-67
2023/10/23 13:05:45;;;;;;;23.00;21.80;;;;;;;;;;5062338;28;20037;-67
2023/10/23 13:08:11;;;;;;;25.00;23.70;;;;;;;;;;5060973;28;20113;-65
2023/10/23 13:10:36;;;;;;;23.05;21.85;;;;;;;;;;5063457;28;20025;-67
2023/10/23 13:13:01;;;;;;;20.02;18.92;;;;;;;;;;5061885;28;20032;-67
2023/10/23 13:15:27;;;;;;;20.92;19.83;;;;;;;;;;5061406;28;20123;-67
2023/10/23 13:17:53;;;;;;;20.33;19.23;;;;;;;;;;5061642;28;20048;-63
2023/10/23 13:20:19;;;;;;;20.48;19.38;;;;;;;;;;5059894;28;20036;-64
2023/10/23 13:22:46;;;;;;;20.00;18.90;;;;;;;;;;5060267;28;20094;-67
2023/10/23 13:25:12;;;;;;;20.63;19.52;;;;;;;;;;5060358;28;20025;-67
2023/10/23 13:27:38;;;;;;;19.98;18.35;;;;;;;;;;5061908;28;20029;-66
2023/10/23 13:30:04;;;;;;;19.38;18.30;;;;;;;;;;5060728;28;20100;-63
2023/10/23 13:32:30;;;;;;;20.30;19.20;;;;;;;;;;5060048;28;20384;-66
2023/10/23 13:34:55;;;;;;;24.30;22.80;;;;;;;;;;5043838;28;20119;-66
2023/10/23 13:37:22;;;;;;;22.65;21.38;;;;;;;;;;5060502;28;20046;-64
2023/10/23 13:39:47;;;;;;;20.55;19.45;;;;;;;;;;5056202;28;20068;-66
2023/10/23 13:42:12;;;;;;;22.63;21.42;;;;;;;;;;5064507;28;20087;-66
2023/10/23 13:44:38;;;;;;;22.50;20.67;;;;;;;;;;5057752;28;20106;-65
2023/10/23 13:47:03;;;;;;;22.48;21.27;;;;;;;;;;5059012;28;20043;-63
2023/10/23 13:49:29;;;;;;;22.17;20.98;;;;;;;;;;5063526;28;20119;-63
2023/10/23 13:51:54;;;;;;;23.67;22.38;;;;;;;;;;5062896;28;20036;-63
2023/10/23 13:54:19;;;;;;;19.63;18.52;;;;;;;;;;5058120;28;20044;-63
2023/10/23 13:56:46;;;;;;;22.60;21.30;;;;;;;;;;5048962;28;20067;-63
2023/10/23 13:59:12;;;;;;;23.27;21.95;;;;;;;;;;5062886;28;20078;-66
2023/10/23 14:01:37;;;;;;;26.15;24.30;;;;;;;;;;5062334;28;20033;-66
2023/10/23 14:04:03;;;;;;;22.38;21.17;;;;;;;;;;5061664;28;20047;-66
2023/10/23 14:06:28;;;;;;;22.65;21.45;;;;;;;;;;5060728;28;20109;-67
2023/10/23 14:08:54;;;;;;;23.38;22.08;;;;;;;;;;5057370;28;20032;-66
2023/10/23 14:11:20;;;;;;;24.58;23.27;;;;;;;;;;5061290;28;20568;-66
2023/10/23 14:13:45;;;;;;;25.15;23.75;;;;;;;;;;5058066;28;20035;-66